Time;durP1;ratioP1;P1;durP2;ratioP2;P2;SDS_P1;SDS_P2;PMS_P1;PMS_P2;Temp;Humidity;BMP_temperature;BMP_pressure;BME280_temperature;BME280_humidity;BME280_pressure;Samples;Min_cycle;Max_cycle;Signal;HPM_P1;HPM_P2
2022/04/29 00:00:42;;;;;;;6.23;1.77;;;;;;;9.22;59.15;102264.69;5046852;28;20294;-71
2022/04/29 00:03:10;;;;;;;7.37;2.67;;;;;;;9.19;59.79;102275.41;5047294;28;20476;-71
2022/04/29 00:05:39;;;;;;;8.00;2.10;;;;;;;9.17;59.40;102277.22;5046012;28;20350;-71
2022/04/29 00:08:08;;;;;;;8.00;2.20;;;;;;;9.14;59.58;102287.97;5046923;28;20667;-71
2022/04/29 00:10:35;;;;;;;11.00;2.50;;;;;;;9.11;59.92;102282.75;5082693;22;20323;-73
2022/04/29 00:13:05;;;;;;;5.43;1.80;;;;;;;9.07;60.45;102281.97;5087133;28;20228;-73
2022/04/29 00:15:32;;;;;;;3.60;2.30;;;;;;;9.04;60.92;102276.75;5087418;28;20740;-73
2022/04/29 00:17:59;;;;;;;7.77;2.40;;;;;;;9.02;60.78;102283.91;5087243;28;20196;-72
2022/04/29 00:20:25;;;;;;;4.57;2.47;;;;;;;8.99;61.50;102282.19;5087596;28;20577;-73
2022/04/29 00:22:52;;;;;;;7.07;3.70;;;;;;;8.96;61.51;102284.94;5088038;28;20331;-73
2022/04/29 00:25:18;;;;;;;6.63;3.03;;;;;;;8.92;62.47;102271.84;5078920;28;20758;-73
2022/04/29 00:27:45;;;;;;;7.30;2.83;;;;;;;8.89;63.24;102277.22;5078886;28;20209;-72
2022/04/29 00:30:13;;;;;;;7.60;3.07;;;;;;;8.87;63.10;102269.31;5081801;28;20329;-73
2022/04/29 00:32:41;;;;;;;13.13;3.03;;;;;;;8.85;63.76;102267.59;5089077;28;20224;-73
2022/04/29 00:35:08;;;;;;;3.63;2.70;;;;;;;8.81;63.58;102274.78;5087768;28;20804;-73
2022/04/29 00:37:43;;;;;;;7.83;2.93;;;;;;;8.78;64.44;102266.91;5087032;28;21089;-73
2022/04/29 00:40:13;;;;;;;10.87;3.00;;;;;;;8.74;64.20;102267.94;5087519;28;20211;-71
2022/04/29 00:42:40;;;;;;;4.73;2.97;;;;;;;8.71;64.69;102260.06;5090855;28;20234;-72
2022/04/29 00:45:08;;;;;;;6.17;2.53;;;;;;;8.67;64.69;102264.59;5090941;28;20200;-72
2022/04/29 00:47:35;;;;;;;6.00;2.77;;;;;;;8.62;64.01;102269.16;5084280;28;20215;-72
2022/04/29 00:50:02;;;;;;;5.63;2.80;;;;;;;8.51;63.47;102270.41;5083138;28;20215;-72
2022/04/29 00:52:32;;;;;;;5.77;2.83;;;;;;;8.32;63.70;102265.63;5091055;28;20234;-72
2022/04/29 00:55:02;;;;;;;7.47;2.90;;;;;;;8.20;64.21;102265.94;5090342;28;20698;-72
2022/04/29 00:57:37;;;;;;;4.20;3.30;;;;;;;8.13;64.17;102264.34;5090695;28;20200;-72
2022/04/29 01:00:07;;;;;;;7.27;3.17;;;;;;;8.09;65.14;102253.84;5091628;28;20203;-72
2022/04/29 01:02:34;;;;;;;7.83;3.13;;;;;;;8.07;65.35;102253.88;5090863;28;20341;-71
2022/04/29 01:05:05;;;;;;;8.77;4.30;;;;;;;8.03;65.14;102252.25;5091038;28;20653;-72
2022/04/29 01:07:33;;;;;;;4.40;2.60;;;;;;;7.96;64.74;102248.91;5090702;28;20200;-72
2022/04/29 01:10:00;;;;;;;6.37;3.20;;;;;;;7.83;64.24;102246.63;5091026;28;20212;-73
2022/04/29 01:12:27;;;;;;;6.77;3.47;;;;;;;7.71;64.53;102254.88;5090786;28;20196;-73
2022/04/29 01:14:55;;;;;;;5.80;2.90;;;;;;;7.58;65.54;102255.19;5090925;28;20200;-73
2022/04/29 01:17:22;;;;;;;5.87;3.37;;;;;;;7.48;65.81;102256.34;5090816;28;20204;-72
2022/04/29 01:19:49;;;;;;;6.17;2.73;;;;;;;7.41;66.04;102252.09;5090535;28;20208;-72
2022/04/29 01:22:17;;;;;;;6.03;3.03;;;;;;;7.36;66.27;102248.69;5090607;28;20216;-72
2022/04/29 01:24:44;;;;;;;5.70;3.03;;;;;;;7.35;66.77;102248.72;5090612;28;20701;-72
2022/04/29 01:27:12;;;;;;;7.33;2.93;;;;;;;7.31;67.37;102240.88;5090263;28;20654;-72
2022/04/29 01:29:41;;;;;;;6.43;3.40;;;;;;;7.29;66.94;102236.50;5090460;28;20200;-73
2022/04/29 01:32:09;;;;;;;6.83;3.40;;;;;;;7.20;67.17;102239.38;5089984;28;20227;-73
2022/04/29 01:34:36;;;;;;;4.67;3.27;;;;;;;7.13;67.39;102237.78;5090338;28;20645;-73
2022/04/29 01:37:03;;;;;;;4.77;2.67;;;;;;;7.10;67.77;102240.50;5088325;28;20204;-73
2022/04/29 01:39:31;;;;;;;6.13;3.13;;;;;;;7.07;68.06;102236.16;5088168;28;20351;-73
2022/04/29 01:41:58;;;;;;;5.50;3.33;;;;;;;7.06;68.48;102238.81;5088787;28;20228;-73
2022/04/29 01:44:25;;;;;;;6.03;3.00;;;;;;;7.05;68.51;102235.31;5084664;28;20235;-72
2022/04/29 01:46:51;;;;;;;7.80;3.53;;;;;;;7.06;69.55;102239.69;5086534;28;20634;-73
2022/04/29 01:49:18;;;;;;;7.60;3.50;;;;;;;7.09;69.44;102233.47;5089918;28;20200;-72
2022/04/29 01:51:44;;;;;;;9.67;3.50;;;;;;;7.10;69.31;102230.78;5089622;28;20227;-72
2022/04/29 01:54:11;;;;;;;5.40;3.50;;;;;;;7.13;69.12;102229.84;5090521;28;20196;-72
2022/04/29 01:56:40;;;;;;;6.83;3.67;;;;;;;7.14;69.80;102221.84;5089325;28;20598;-72
2022/04/29 01:59:07;;;;;;;6.57;3.77;;;;;;;7.14;70.07;102221.84;5094988;28;20583;-72
2022/04/29 02:01:34;;;;;;;8.30;3.67;;;;;;;7.15;69.33;102220.09;5090011;28;20223;-73
2022/04/29 02:04:01;;;;;;;8.40;3.87;;;;;;;7.14;69.87;102218.34;5089925;28;20228;-73
2022/04/29 02:06:28;;;;;;;10.87;3.50;;;;;;;7.14;69.94;102215.69;5088832;28;20208;-72
2022/04/29 02:08:55;;;;;;;7.50;3.80;;;;;;;7.13;69.37;102213.94;5078203;28;20290;-72
2022/04/29 02:11:21;;;;;;;8.53;3.60;;;;;;;7.12;69.71;102212.19;5087170;28;20239;-73
2022/04/29 02:13:49;;;;;;;6.93;3.50;;;;;;;7.10;69.88;102208.72;5089948;28;20200;-72
2022/04/29 02:16:16;;;;;;;7.77;3.67;;;;;;;7.09;69.88;102207.84;5089002;28;20204;-73
2022/04/29 02:18:42;;;;;;;8.13;3.73;;;;;;;7.07;70.05;102204.34;5089602;28;20200;-73
2022/04/29 02:21:09;;;;;;;7.37;3.60;;;;;;;7.07;70.03;102203.47;5089102;28;20329;-73
2022/04/29 02:23:35;;;;;;;11.60;3.87;;;;;;;7.06;69.94;102201.75;5089670;28;20235;-73
2022/04/29 02:26:02;;;;;;;5.37;3.37;;;;;;;7.06;70.24;102201.75;5089491;28;20301;-73
2022/04/29 02:28:29;;;;;;;7.47;3.77;;;;;;;7.04;70.45;102195.59;5089044;28;20207;-73
2022/04/29 02:30:57;;;;;;;8.93;3.80;;;;;;;7.05;70.29;102205.28;5089522;28;20366;-73
2022/04/29 02:33:24;;;;;;;6.27;3.53;;;;;;;7.04;70.06;102198.25;5089286;28;20657;-72
2022/04/29 02:35:50;;;;;;;11.40;4.67;;;;;;;7.03;70.66;102192.09;5089795;28;20215;-72
2022/04/29 02:38:17;;;;;;;11.90;4.23;;;;;;;7.03;70.81;102197.38;5089101;28;20215;-73
2022/04/29 02:40:44;;;;;;;9.50;3.80;;;;;;;7.03;71.10;102193.88;5090270;28;20228;-72
2022/04/29 02:43:10;;;;;;;6.37;3.33;;;;;;;7.04;71.01;102192.97;5089142;28;20255;-73
2022/04/29 02:45:37;;;;;;;7.47;4.37;;;;;;;7.04;71.17;102193.81;5089582;28;20266;-72
2022/04/29 02:48:05;;;;;;;8.43;4.27;;;;;;;7.05;70.84;102194.69;5088121;28;20196;-73
2022/04/29 02:50:32;;;;;;;9.10;4.00;;;;;;;7.04;70.96;102195.59;5088708;28;20247;-72
2022/04/29 02:52:58;;;;;;;8.07;3.90;;;;;;;7.04;71.36;102193.81;5088300;28;20203;-73
2022/04/29 02:55:25;;;;;;;7.80;4.50;;;;;;;7.05;71.07;102205.28;5088944;28;20200;-72
2022/04/29 02:57:52;;;;;;;9.17;4.00;;;;;;;7.03;71.08;102196.50;5088579;28;20204;-72
2022/04/29 03:00:19;;;;;;;13.17;4.23;;;;;;;7.04;70.66;102195.59;5088851;28;20231;-72
2022/04/29 03:02:45;;;;;;;7.60;3.93;;;;;;;7.02;71.21;102192.13;5088143;28;20287;-72
2022/04/29 03:05:13;;;;;;;7.37;3.80;;;;;;;7.00;70.78;102188.63;5088372;28;20212;-73
2022/04/29 03:07:40;;;;;;;11.97;4.47;;;;;;;6.98;70.80;102183.41;5087964;28;20200;-72
2022/04/29 03:10:07;;;;;;;7.67;4.53;;;;;;;6.96;71.21;102183.44;5088583;28;20211;-73
2022/04/29 03:12:33;;;;;;;10.27;4.30;;;;;;;6.94;71.56;102181.72;5088856;28;20203;-72
2022/04/29 03:20:26;;;;;;;8.13;4.20;;;;;;;6.91;71.80;102173.84;5088733;28;20226;-73
2022/04/29 03:22:52;;;;;;;9.63;4.63;;;;;;;6.90;72.38;102170.31;5088684;28;20215;-73
2022/04/29 03:25:19;;;;;;;9.03;4.60;;;;;;;6.88;71.82;102166.84;5089056;28;20215;-73
2022/04/29 03:27:46;;;;;;;10.23;4.60;;;;;;;6.87;72.19;102167.75;5088322;28;20209;-72
2022/04/29 03:30:14;;;;;;;9.30;4.83;;;;;;;6.85;72.50;102166.03;5087362;28;20299;-72
2022/04/29 03:32:40;;;;;;;9.03;4.70;;;;;;;6.83;72.61;102160.78;5080129;28;20424;-73
2022/04/29 03:35:07;;;;;;;10.13;4.80;;;;;;;6.83;72.73;102166.06;5076089;28;20207;-73
2022/04/29 03:37:35;;;;;;;10.27;4.97;;;;;;;6.82;72.48;102160.81;5076934;28;20196;-72
2022/04/29 03:40:02;;;;;;;11.33;6.07;;;;;;;6.79;72.88;102156.47;5070918;28;20200;-73
2022/04/29 03:42:28;;;;;;;11.97;5.07;;;;;;;6.78;72.75;102152.09;5086183;28;20673;-72
2022/04/29 03:44:55;;;;;;;10.33;5.10;;;;;;;6.77;72.69;102153.00;5073058;28;20234;-72
2022/04/29 03:47:21;;;;;;;10.20;4.93;;;;;;;6.77;72.75;102157.41;5079032;28;20295;-73
2022/04/29 03:49:48;;;;;;;9.70;5.30;;;;;;;6.75;72.96;102149.50;5074925;28;20216;-71
2022/04/29 03:52:15;;;;;;;8.67;4.83;;;;;;;6.74;73.50;102149.53;5079046;28;20250;-73
2022/04/29 03:54:43;;;;;;;7.93;4.80;;;;;;;6.73;73.57;102156.63;5079812;28;20201;-72
2022/04/29 03:57:09;;;;;;;9.87;4.77;;;;;;;6.71;73.14;102160.19;5073759;28;20219;-72
2022/04/29 03:59:36;;;;;;;6.90;4.17;;;;;;;6.66;72.83;102152.34;5080092;28;20268;-73
2022/04/29 04:02:02;;;;;;;13.07;5.03;;;;;;;6.59;72.84;102158.72;5073696;28;20228;-73
2022/04/29 04:04:29;;;;;;;10.57;4.80;;;;;;;6.50;72.64;102154.50;5080074;28;20272;-72
2022/04/29 04:07:01;;;;;;;7.50;4.53;;;;;;;6.44;72.75;102157.28;5073630;28;20201;-72
2022/04/29 04:09:28;;;;;;;8.13;4.60;;;;;;;6.36;72.59;102156.56;5080472;28;20254;-73
2022/04/29 04:11:56;;;;;;;12.10;5.10;;;;;;;6.28;73.08;102155.84;5082342;28;20632;-73
2022/04/29 04:14:22;;;;;;;7.80;4.47;;;;;;;6.21;73.50;102157.78;5087895;28;20200;-72
2022/04/29 04:16:49;;;;;;;8.47;4.93;;;;;;;6.17;73.76;102161.41;5090314;28;20695;-71
2022/04/29 04:19:16;;;;;;;6.87;5.17;;;;;;;6.14;73.61;102156.16;5089676;28;20207;-73
2022/04/29 04:21:42;;;;;;;10.20;5.77;;;;;;;6.10;73.64;102159.75;5084498;28;20231;-70
2022/04/29 04:24:10;;;;;;;9.30;4.67;;;;;;;6.07;73.72;102159.00;5091204;28;20220;-74
2022/04/29 04:26:37;;;;;;;9.00;5.40;;;;;;;6.03;74.17;102163.47;5085552;28;20208;-72
2022/04/29 04:29:04;;;;;;;9.50;5.07;;;;;;;6.02;74.24;102164.34;5079005;28;20205;-72
2022/04/29 04:31:31;;;;;;;10.33;5.57;;;;;;;6.02;74.55;102161.72;5082758;28;20235;-72
2022/04/29 04:33:57;;;;;;;10.13;5.10;;;;;;;6.03;74.71;102159.94;5078811;28;20215;-72
2022/04/29 04:36:24;;;;;;;9.83;5.63;;;;;;;6.05;74.67;102164.31;5078639;28;20578;-72
2022/04/29 04:38:50;;;;;;;7.10;4.80;;;;;;;6.07;75.16;102166.91;5075927;28;20588;-72
2022/04/29 04:41:17;;;;;;;8.93;4.57;;;;;;;6.04;75.02;102164.34;5074706;28;20308;-72
2022/04/29 04:43:44;;;;;;;7.33;5.17;;;;;;;5.98;74.82;102162.66;5077454;28;20660;-72
2022/04/29 04:46:13;;;;;;;10.77;5.37;;;;;;;5.91;74.48;102171.66;5077471;28;20211;-72
2022/04/29 04:48:39;;;;;;;12.40;5.30;;;;;;;5.85;75.15;102169.09;5081592;28;20196;-72
2022/04/29 04:51:06;;;;;;;8.13;4.87;;;;;;;5.84;75.37;102178.78;5080030;28;20228;-72
2022/04/29 04:53:32;;;;;;;9.57;5.33;;;;;;;5.82;75.43;102169.13;5078749;28;20196;-72
2022/04/29 04:55:59;;;;;;;7.47;5.07;;;;;;;5.82;75.76;102167.38;5079686;28;20580;-72
2022/04/29 04:58:26;;;;;;;6.03;5.20;;;;;;;5.83;76.21;102173.53;5077414;28;20200;-72
2022/04/29 05:00:52;;;;;;;10.43;5.47;;;;;;;5.83;75.75;102171.75;5081312;28;20709;-73
2022/04/29 05:03:20;;;;;;;11.00;5.13;;;;;;;5.84;76.40;102178.78;5081723;28;20196;-73
2022/04/29 05:05:47;;;;;;;6.63;5.53;;;;;;;5.84;76.15;102177.91;5077139;28;20208;-73
2022/04/29 05:08:13;;;;;;;11.37;5.23;;;;;;;5.83;76.37;102170.88;5077942;28;20625;-73
2022/04/29 05:10:40;;;;;;;8.50;5.33;;;;;;;5.84;76.75;102172.63;5071393;28;20229;-73
2022/04/29 05:13:06;;;;;;;7.87;5.20;;;;;;;5.85;76.46;102169.09;5075201;28;20218;-71
2022/04/29 05:15:33;;;;;;;12.03;5.33;;;;;;;5.82;76.56;102174.44;5084214;28;20211;-71
2022/04/29 05:17:59;;;;;;;10.20;5.07;;;;;;;5.80;76.58;102171.81;5080906;28;20204;-72
2022/04/29 05:20:27;;;;;;;10.63;5.00;;;;;;;5.81;76.67;102185.91;5086528;28;20221;-72
2022/04/29 05:22:54;;;;;;;13.10;5.57;;;;;;;5.82;76.98;102192.94;5083183;28;20208;-71
2022/04/29 05:25:20;;;;;;;10.87;5.47;;;;;;;5.86;77.00;102184.03;5080179;28;20731;-72
2022/04/29 05:27:47;;;;;;;14.13;7.23;;;;;;;5.93;77.34;102194.50;5076510;28;20210;-71
2022/04/29 05:30:13;;;;;;;12.93;7.17;;;;;;;6.02;77.93;102196.09;5079874;28;20220;-74
2022/04/29 05:32:40;;;;;;;14.73;7.10;;;;;;;6.09;78.47;102189.75;5082689;28;20192;-71
2022/04/29 05:35:08;;;;;;;13.13;6.57;;;;;;;6.15;78.37;102194.94;5085657;28;20219;-72
2022/04/29 05:37:37;;;;;;;14.77;6.83;;;;;;;6.21;78.29;102191.31;5088780;28;20637;-72
2022/04/29 05:42:48;;;;;;;17.27;7.33;;;;;;;6.34;78.57;102195.44;5084143;28;20266;-72
2022/04/29 05:45:15;;;;;;;13.60;7.03;;;;;;;6.39;78.63;102198.84;5088335;28;20224;-72
2022/04/29 05:47:41;;;;;;;15.30;7.43;;;;;;;6.47;79.02;102196.03;5088102;28;20215;-72
2022/04/29 05:50:08;;;;;;;16.20;6.90;;;;;;;6.54;79.44;102200.28;5089909;28;20351;-72
2022/04/29 05:52:36;;;;;;;14.50;7.33;;;;;;;6.60;78.72;102189.59;5090533;28;20212;-72
2022/04/29 05:55:02;;;;;;;15.50;7.00;;;;;;;6.66;79.16;102196.50;5090155;28;20227;-72
2022/04/29 05:57:29;;;;;;;14.43;7.90;;;;;;;6.71;79.37;102190.19;5089494;28;20221;-72
2022/04/29 05:59:56;;;;;;;15.10;7.43;;;;;;;6.75;79.10;102186.59;5090224;28;20212;-72
2022/04/29 06:02:24;;;;;;;13.53;7.23;;;;;;;6.80;78.60;102189.13;5090406;28;20330;-72
2022/04/29 06:04:50;;;;;;;16.80;7.60;;;;;;;6.85;79.03;102190.75;5090380;28;20331;-72
2022/04/29 06:07:17;;;;;;;14.43;7.77;;;;;;;6.90;79.49;102186.22;5090114;28;20207;-72
2022/04/29 06:09:45;;;;;;;11.57;8.20;;;;;;;6.96;79.06;102186.09;5090346;28;20211;-72
2022/04/29 06:12:12;;;;;;;20.80;7.83;;;;;;;7.01;79.15;102182.44;5082576;22;20244;-70
2022/04/29 06:14:41;;;;;;;15.07;8.00;;;;;;;7.05;79.55;102181.44;5048970;28;20228;-69
2022/04/29 06:17:07;;;;;;;13.00;8.27;;;;;;;7.11;79.52;102182.19;5049781;28;20674;-69
2022/04/29 06:19:34;;;;;;;17.60;8.03;;;;;;;7.17;79.26;102176.72;5049840;28;20209;-69
2022/04/29 06:22:00;;;;;;;14.33;7.30;;;;;;;7.25;79.64;102182.72;5049900;28;20232;-69
2022/04/29 06:24:27;;;;;;;17.30;7.43;;;;;;;7.32;79.44;102180.78;5049725;28;20241;-69
2022/04/29 06:26:55;;;;;;;19.60;8.87;;;;;;;7.39;79.52;102173.53;5049607;28;20209;-69
2022/04/29 06:29:21;;;;;;;15.10;8.07;;;;;;;7.46;78.66;102180.41;5049415;28;20205;-69
2022/04/29 06:31:47;;;;;;;16.33;8.00;;;;;;;7.51;78.40;102179.41;5049749;28;20233;-69
2022/04/29 06:34:14;;;;;;;14.27;8.27;;;;;;;7.55;79.09;102175.72;5049736;28;20209;-69
2022/04/29 06:36:41;;;;;;;14.47;7.70;;;;;;;7.60;78.56;102181.78;5049417;28;20236;-69
2022/04/29 06:39:07;;;;;;;17.20;8.67;;;;;;;7.64;78.69;102171.97;5049332;28;20209;-69
2022/04/29 06:41:35;;;;;;;17.23;8.10;;;;;;;7.68;78.59;102178.94;5049477;28;20236;-69
2022/04/29 06:44:03;;;;;;;16.10;8.07;;;;;;;7.73;77.66;102174.38;5048864;28;20304;-69
2022/04/29 06:46:30;;;;;;;12.53;8.20;;;;;;;7.81;77.95;102171.50;5049125;28;20201;-69
2022/04/29 06:48:56;;;;;;;15.77;8.07;;;;;;;7.93;78.47;102174.69;5053492;28;20204;-69
2022/04/29 06:51:23;;;;;;;16.70;8.37;;;;;;;8.05;77.99;102176.16;5068992;28;20224;-69
2022/04/29 06:53:50;;;;;;;14.03;8.33;;;;;;;8.19;78.51;102171.31;5069605;28;20209;-69
2022/04/29 06:56:16;;;;;;;16.70;8.43;;;;;;;8.34;77.64;102180.63;5068554;28;20197;-69
2022/04/29 06:58:43;;;;;;;14.77;8.23;;;;;;;8.50;77.79;102178.38;5069276;28;20216;-69
2022/04/29 07:01:11;;;;;;;18.20;8.50;;;;;;;8.66;77.69;102174.34;5068702;28;20229;-69
2022/04/29 07:03:38;;;;;;;14.60;7.87;;;;;;;8.80;77.27;102177.41;5069068;28;20209;-69
2022/04/29 07:06:06;;;;;;;12.30;8.00;;;;;;;8.90;77.01;102181.53;5068485;28;20733;-69
2022/04/29 07:08:33;;;;;;;17.97;8.73;;;;;;;8.97;75.94;102177.75;5068978;28;20201;-69
2022/04/29 07:10:59;;;;;;;16.93;8.13;;;;;;;9.02;74.86;102174.94;5068661;28;20233;-69
2022/04/29 07:13:26;;;;;;;19.20;8.30;;;;;;;9.10;75.55;102177.38;5069044;28;20321;-69
2022/04/29 07:15:52;;;;;;;19.53;8.77;;;;;;;9.23;74.67;102170.72;5068607;28;20204;-69
2022/04/29 07:18:20;;;;;;;15.27;8.40;;;;;;;9.38;75.05;102171.06;5068224;28;20205;-69
2022/04/29 07:20:47;;;;;;;17.80;9.10;;;;;;;9.50;74.88;102171.53;5068545;28;20228;-69
2022/04/29 07:23:13;;;;;;;12.70;8.37;;;;;;;9.57;74.72;102170.44;5068562;28;20213;-69
2022/04/29 07:25:40;;;;;;;16.93;8.83;;;;;;;9.64;74.21;102156.00;5064783;28;20220;-69
2022/04/29 07:28:07;;;;;;;16.70;8.77;;;;;;;9.72;73.71;102159.25;5057661;28;20213;-69
2022/04/29 07:30:34;;;;;;;16.50;8.37;;;;;;;9.79;73.11;102154.56;5067612;28;20248;-69
2022/04/29 07:33:00;;;;;;;12.30;8.13;;;;;;;9.82;72.07;102158.00;5068232;28;20705;-69
2022/04/29 07:43:41;;;;;;;16.33;8.23;;;;;;;10.00;71.97;102148.47;5068349;28;20245;-69
2022/04/29 07:46:10;;;;;;;18.67;8.90;;;;;;;10.09;71.95;102138.34;5068207;28;20232;-69
2022/04/29 07:48:37;;;;;;;18.20;8.47;;;;;;;10.16;71.57;102143.44;5068305;28;20243;-69
2022/04/29 07:51:06;;;;;;;20.17;9.63;;;;;;;10.25;71.17;102148.44;5067621;28;20307;-69
2022/04/29 07:53:34;;;;;;;17.03;8.93;;;;;;;10.32;71.10;102140.16;5068402;28;20204;-69
2022/04/29 07:56:01;;;;;;;16.27;8.83;;;;;;;10.44;70.54;102149.47;5067409;28;20196;-69
2022/04/29 07:58:27;;;;;;;14.40;8.40;;;;;;;10.52;70.58;102143.84;5067896;28;20209;-69
2022/04/29 08:00:55;;;;;;;16.03;8.10;;;;;;;10.63;70.07;102145.16;5068271;28;20220;-69
2022/04/29 08:03:22;;;;;;;16.83;9.07;;;;;;;10.75;69.60;102144.66;5068480;28;20300;-69
2022/04/29 08:05:49;;;;;;;17.17;8.63;;;;;;;10.87;69.52;102147.75;5067997;28;20265;-69
2022/04/29 08:08:17;;;;;;;12.10;8.40;;;;;;;10.99;69.39;102148.13;5067621;28;20300;-69
2022/04/29 08:10:44;;;;;;;18.73;9.50;;;;;;;11.14;69.07;102151.94;5068071;28;20248;-69
2022/04/29 08:13:11;;;;;;;19.60;7.93;;;;;;;11.30;68.66;102147.69;5068123;28;20236;-69
2022/04/29 08:15:38;;;;;;;19.33;9.83;;;;;;;11.45;68.00;102146.19;5068049;28;20222;-69
2022/04/29 08:18:05;;;;;;;16.77;8.23;;;;;;;11.62;67.11;102151.66;5067590;28;20213;-69
2022/04/29 08:20:32;;;;;;;13.50;8.60;;;;;;;11.71;66.43;102148.56;5067767;28;20223;-69
2022/04/29 08:23:00;;;;;;;15.13;8.13;;;;;;;11.82;66.15;102145.47;5068008;28;20441;-69
2022/04/29 08:25:28;;;;;;;15.77;8.27;;;;;;;11.88;65.34;102138.97;5068010;28;20675;-69
2022/04/29 08:27:54;;;;;;;20.87;9.40;;;;;;;11.99;65.61;102142.06;5067707;28;20776;-69
2022/04/29 08:30:21;;;;;;;16.03;8.93;;;;;;;12.13;65.31;102137.81;5068098;28;20205;-69
2022/04/29 08:32:50;;;;;;;18.60;8.83;;;;;;;12.27;64.66;102142.50;5068246;28;20205;-69
2022/04/29 08:35:17;;;;;;;16.17;7.23;;;;;;;12.42;64.23;102130.22;5068053;28;20280;-69
2022/04/29 08:37:44;;;;;;;14.23;8.47;;;;;;;12.59;64.00;102137.44;5067920;28;20208;-69
2022/04/29 08:40:12;;;;;;;14.20;7.27;;;;;;;12.73;62.55;102133.13;5066304;28;20197;-69
2022/04/29 08:42:41;;;;;;;11.90;7.70;;;;;;;12.89;61.60;102127.94;5067483;28;20231;-69
2022/04/29 08:45:10;;;;;;;17.73;8.00;;;;;;;13.00;61.29;102111.34;5067687;28;20259;-69
2022/04/29 08:47:37;;;;;;;15.57;9.27;;;;;;;13.13;60.97;102107.97;5066991;28;20262;-69
2022/04/29 08:50:06;;;;;;;13.33;8.27;;;;;;;13.32;61.24;102110.59;5067778;28;20209;-69
2022/04/29 08:52:35;;;;;;;13.07;8.07;;;;;;;13.47;60.16;102112.47;5067679;28;20229;-69
2022/04/29 09:00:32;;;;;;;15.03;8.37;;;;;;;13.89;58.65;102103.97;5067627;28;20592;-69
2022/04/29 09:03:00;;;;;;;20.63;8.27;;;;;;;13.99;57.91;102107.00;5070788;28;20243;-69
2022/04/29 09:05:27;;;;;;;15.37;8.30;;;;;;;14.09;56.80;102110.06;5071739;28;20264;-69
2022/04/29 09:07:59;;;;;;;17.27;7.97;;;;;;;14.17;56.04;102107.81;5071735;28;20225;-71
2022/04/29 09:10:28;;;;;;;14.97;8.00;;;;;;;14.25;56.11;102111.81;5070860;28;20271;-71
2022/04/29 09:13:10;;;;;;;14.50;8.57;;;;;;;14.37;56.32;102104.03;5071719;28;20259;-70
2022/04/29 09:15:37;;;;;;;14.73;8.70;;;;;;;14.53;56.35;102111.16;5071956;28;20200;-69
2022/04/29 09:18:04;;;;;;;15.10;8.03;;;;;;;14.65;55.17;102108.75;5071192;28;20250;-69
2022/04/29 09:20:31;;;;;;;13.50;8.17;;;;;;;14.75;54.63;102105.44;5071290;28;20201;-69
2022/04/29 09:22:57;;;;;;;15.27;8.03;;;;;;;14.85;54.21;102100.41;5071457;28;20213;-69
2022/04/29 09:25:24;;;;;;;16.60;7.77;;;;;;;14.94;53.99;102095.34;5071475;28;20241;-69
2022/04/29 09:27:57;;;;;;;13.47;8.20;;;;;;;15.08;53.81;102097.22;5071033;28;20201;-69
2022/04/29 09:30:38;;;;;;;17.50;7.43;;;;;;;15.22;53.32;102093.75;5071230;28;20206;-69
2022/04/29 09:33:06;;;;;;;13.07;8.57;;;;;;;15.31;52.62;102093.16;5071996;28;20435;-68
2022/04/29 09:35:40;;;;;;;12.20;8.13;;;;;;;15.39;52.11;102095.41;5071114;28;20590;-68
2022/04/29 09:40:52;;;;;;;11.57;7.67;;;;;;;15.50;51.79;102092.91;5070940;28;20604;-68
2022/04/29 09:43:31;;;;;;;12.63;7.57;;;;;;;15.58;51.47;102093.38;5071137;28;20257;-68
2022/04/29 09:46:10;;;;;;;17.73;7.97;;;;;;;15.67;51.48;102082.03;5070895;28;20234;-68
2022/04/29 09:48:54;;;;;;;13.30;7.90;;;;;;;15.80;51.23;102079.44;5071019;28;20361;-68
2022/04/29 09:51:47;;;;;;;14.63;7.67;;;;;;;15.96;51.03;102080.19;5071034;28;20234;-69
2022/04/29 09:54:25;;;;;;;14.77;8.40;;;;;;;16.07;50.35;102079.53;5070833;28;20210;-69
2022/04/29 09:57:11;;;;;;;13.67;7.93;;;;;;;16.20;50.65;102078.66;5070295;28;20200;-69
2022/04/29 09:59:41;;;;;;;12.43;7.83;;;;;;;16.31;50.09;102069.88;5071306;28;20207;-69
2022/04/29 10:02:10;;;;;;;16.97;8.47;;;;;;;16.41;49.46;102065.66;5070852;28;20257;-68
2022/04/29 10:04:38;;;;;;;13.27;7.43;;;;;;;16.50;49.11;102065.03;5070919;28;20247;-69
2022/04/29 10:07:06;;;;;;;10.83;8.30;;;;;;;16.63;49.20;102060.63;5070461;28;20259;-69
2022/04/29 10:09:35;;;;;;;15.53;8.90;;;;;;;16.76;49.14;102060.66;5070597;28;20212;-69
2022/04/29 10:12:03;;;;;;;10.87;8.07;;;;;;;16.89;49.16;102058.00;5070138;28;20240;-69
2022/04/29 10:14:31;;;;;;;10.67;7.43;;;;;;;17.04;48.98;102054.25;5070057;28;20781;-69
2022/04/29 10:22:50;;;;;;;13.37;8.07;;;;;;;17.38;47.26;102046.56;5027389;28;20226;-69
2022/04/29 10:25:20;;;;;;;15.10;9.00;;;;;;;17.43;47.26;102039.00;5053045;28;20209;-69
2022/04/29 10:27:47;;;;;;;13.47;7.93;;;;;;;17.56;47.64;102038.03;5069808;28;20214;-69
2022/04/29 10:30:15;;;;;;;13.03;8.23;;;;;;;17.74;47.04;102045.81;5070117;28;20216;-69
2022/04/29 10:33:03;;;;;;;15.20;8.37;;;;;;;17.86;46.85;102042.25;5070414;28;20590;-69
2022/04/29 10:35:49;;;;;;;13.00;8.63;;;;;;;18.01;46.73;102033.91;5070536;28;20225;-69
2022/04/29 10:38:17;;;;;;;16.43;8.50;;;;;;;18.08;45.59;102033.50;5069361;28;20205;-69
2022/04/29 10:40:44;;;;;;;11.57;8.53;;;;;;;18.15;45.48;102035.59;5070321;28;20249;-69
2022/04/29 10:43:13;;;;;;;11.63;8.13;;;;;;;18.22;45.33;102033.34;5070086;28;20218;-69
2022/04/29 10:46:14;;;;;;;14.07;9.03;;;;;;;18.31;45.67;102032.63;5069934;28;20226;-69
2022/04/29 10:48:42;;;;;;;13.50;8.77;;;;;;;18.41;44.45;102020.22;5069757;28;20604;-69
2022/04/29 10:51:10;;;;;;;13.83;8.80;;;;;;;18.51;44.71;102009.56;5069726;28;20474;-69
2022/04/29 10:53:38;;;;;;;10.73;9.03;;;;;;;18.62;44.47;102012.38;5069458;28;20256;-69
2022/04/29 10:56:37;;;;;;;14.03;8.53;;;;;;;18.75;44.45;102012.28;5068863;28;20206;-69
2022/04/29 10:59:15;;;;;;;12.10;9.23;;;;;;;18.85;43.99;102011.47;5069474;28;20240;-69
2022/04/29 11:01:47;;;;;;;9.80;8.20;;;;;;;18.97;43.36;102004.28;5068986;28;20231;-70
2022/04/29 11:04:46;;;;;;;11.00;8.00;;;;;;;19.05;43.20;102002.69;5069079;28;20213;-69
2022/04/29 11:07:36;;;;;;;12.43;8.97;;;;;;;19.10;43.11;101996.94;5068539;28;20578;-70
2022/04/29 11:10:04;;;;;;;13.83;8.93;;;;;;;19.11;43.08;102003.22;5068806;28;20725;-70
2022/04/29 11:12:32;;;;;;;12.33;8.83;;;;;;;19.16;43.20;102003.72;5068624;28;20232;-70
2022/04/29 11:15:13;;;;;;;12.83;9.33;;;;;;;19.26;43.32;101997.47;5068712;28;20238;-71
2022/04/29 11:17:40;;;;;;;14.00;8.80;;;;;;;19.35;42.13;102004.81;5068466;28;20467;-70
2022/04/29 11:20:19;;;;;;;13.00;8.90;;;;;;;19.36;42.02;101993.03;5068604;28;20220;-69
2022/04/29 11:25:52;;;;;;;13.50;9.27;;;;;;;19.42;42.17;101987.16;5067919;28;20712;-69
2022/04/29 11:28:19;;;;;;;14.53;9.13;;;;;;;19.47;41.96;101983.25;5068456;28;20206;-69
2022/04/29 11:30:46;;;;;;;10.13;9.10;;;;;;;19.52;41.75;101984.63;5068812;28;20607;-69
2022/04/29 11:33:13;;;;;;;14.47;9.30;;;;;;;19.62;41.27;101980.19;5068509;28;20221;-69
2022/04/29 11:35:42;;;;;;;15.43;9.17;;;;;;;19.67;40.86;101979.84;5068885;28;20206;-70
2022/04/29 11:38:09;;;;;;;13.97;10.20;;;;;;;19.69;40.91;101970.63;5068101;28;20216;-70
2022/04/29 11:40:39;;;;;;;12.47;8.87;;;;;;;19.70;40.60;101977.75;5068358;28;20202;-70
2022/04/29 11:43:10;;;;;;;11.30;8.87;;;;;;;19.77;39.96;101967.28;5068469;28;20209;-70
2022/04/29 11:45:40;;;;;;;13.50;9.30;;;;;;;19.79;40.44;101970.72;5068038;28;20310;-70
2022/04/29 11:48:09;;;;;;;14.87;9.33;;;;;;;19.82;40.18;101967.78;5068012;28;20555;-70
2022/04/29 11:50:37;;;;;;;15.10;9.90;;;;;;;19.84;39.94;101968.50;5064231;28;20202;-70
2022/04/29 11:53:07;;;;;;;13.27;8.93;;;;;;;19.79;39.75;101959.91;5049699;28;20688;-70
2022/04/29 11:55:34;;;;;;;11.27;9.00;;;;;;;19.75;39.61;101963.84;5044480;28;20223;-69
2022/04/29 11:58:00;;;;;;;13.40;8.77;;;;;;;19.72;39.88;101954.13;5041422;28;20213;-69
2022/04/29 12:00:29;;;;;;;13.63;9.10;;;;;;;19.77;39.71;101949.22;5040888;28;20665;-70
2022/04/29 12:02:58;;;;;;;13.53;9.40;;;;;;;19.79;39.54;101957.22;5034554;28;20223;-70